createdAt,value
2022-08-05T00:04:33.516Z,15.65
2022-08-05T00:09:37.209Z,11.77
2022-08-05T00:14:42.265Z,10.25
2022-08-05T00:20:02.444Z,9.60
2022-08-05T00:25:08.370Z,8.25
2022-08-05T00:30:17.669Z,9.32
2022-08-05T00:35:21.698Z,9.18
2022-08-05T00:40:51.911Z,14.52
2022-08-05T00:45:58.401Z,8.77
2022-08-05T00:51:02.831Z,15.73
2022-08-05T00:56:26.493Z,7.95
2022-08-05T01:01:42.916Z,13.02
2022-08-05T01:06:52.957Z,9.30
2022-08-05T01:12:09.263Z,8.43
2022-08-05T01:17:29.165Z,11.25
2022-08-05T01:22:57.182Z,9.32
2022-08-05T01:28:16.766Z,9.70
2022-08-05T01:33:25.247Z,10.02
2022-08-05T01:38:31.039Z,12.60
2022-08-05T01:43:37.423Z,10.00
2022-08-05T01:48:49.775Z,11.20
2022-08-05T01:53:58.542Z,6.30
2022-08-05T01:59:08.007Z,11.43
2022-08-05T02:04:13.125Z,7.75
2022-08-05T02:09:17.037Z,9.13
2022-08-05T02:14:32.080Z,7.65
2022-08-05T02:19:46.934Z,8.65
2022-08-05T02:24:53.595Z,11.88
2022-08-05T02:30:02.168Z,16.30
2022-08-05T02:35:14.197Z,8.48
2022-08-05T02:40:18.591Z,10.07
2022-08-05T02:45:25.668Z,17.08
2022-08-05T02:50:30.421Z,10.43
2022-08-05T02:55:54.688Z,14.10
2022-08-05T03:01:02.667Z,15.20
2022-08-05T03:06:56.224Z,10.88
2022-08-05T03:11:56.530Z,12.32
2022-08-05T03:16:55.761Z,9.93
2022-08-05T03:21:59.581Z,17.38
2022-08-05T03:27:03.442Z,6.63
2022-08-05T03:32:12.452Z,13.75
2022-08-05T03:37:18.125Z,10.50
2022-08-05T03:42:22.002Z,7.82
2022-08-05T03:47:35.204Z,10.65
2022-08-05T03:55:34.516Z,8.57
2022-08-05T03:58:17.513Z,13.18
2022-08-05T04:03:28.243Z,11.35
2022-08-05T04:08:36.250Z,11.30
2022-08-05T04:13:50.421Z,8.85
2022-08-05T04:18:57.796Z,8.85
2022-08-05T04:24:06.700Z,10.00
2022-08-05T04:29:12.864Z,8.65
2022-08-05T04:34:33.117Z,17.23
2022-08-05T04:39:39.153Z,9.90
2022-08-05T04:44:43.673Z,11.70
2022-08-05T04:50:01.474Z,21.55
2022-08-05T04:55:14.413Z,14.50
2022-08-05T05:00:19.359Z,11.98
2022-08-05T05:05:29.406Z,11.93
2022-08-05T05:10:34.711Z,14.65
2022-08-05T05:21:04.350Z,10.57
2022-08-05T05:26:09.348Z,17.02
2022-08-05T05:31:13.355Z,11.98
2022-08-05T05:36:18.478Z,15.93
2022-08-05T05:41:23.395Z,12.50
2022-08-05T05:46:27.775Z,13.37
2022-08-05T05:51:49.586Z,10.80
2022-08-05T05:56:53.734Z,12.18
2022-08-05T06:01:58.183Z,12.50
2022-08-05T06:07:03.831Z,20.00
2022-08-05T06:12:09.515Z,8.50
2022-08-05T06:17:22.334Z,10.85
2022-08-05T06:22:33.304Z,12.50
2022-08-05T06:28:12.138Z,8.63
2022-08-05T06:33:01.873Z,10.38
2022-08-05T06:38:11.199Z,8.00
2022-08-05T06:43:59.228Z,14.13
2022-08-05T06:48:56.888Z,9.90
2022-08-05T06:54:05.528Z,14.70
2022-08-05T06:59:14.545Z,27.90
2022-08-05T07:04:24.378Z,10.25
2022-08-05T07:09:32.392Z,6.38
2022-08-05T07:15:10.295Z,6.85
2022-08-05T07:20:32.868Z,10.73
2022-08-05T07:25:56.493Z,12.05
2022-08-05T07:31:01.172Z,8.00
2022-08-05T07:36:21.498Z,6.45
2022-08-05T07:42:13.860Z,8.65
2022-08-05T07:47:01.764Z,8.60
2022-08-05T07:52:11.766Z,9.10
2022-08-05T07:57:41.678Z,6.18
2022-08-05T08:08:07.919Z,3.70
2022-08-05T08:13:21.983Z,4.55
2022-08-05T08:18:33.097Z,7.13
2022-08-05T08:24:01.457Z,9.77
2022-08-05T08:29:29.504Z,6.03
2022-08-05T08:34:30.867Z,6.68
2022-08-05T08:39:38.165Z,7.13
2022-08-05T08:45:25.273Z,8.93
2022-08-05T08:50:32.220Z,11.15
2022-08-05T08:56:02.849Z,3.05
2022-08-05T09:06:27.847Z,3.20
2022-08-05T09:11:50.724Z,7.22
2022-08-05T09:16:59.152Z,4.82
2022-08-05T09:22:24.908Z,5.07
2022-08-05T09:28:05.219Z,5.07
2022-08-05T09:33:04.542Z,9.00
2022-08-05T09:38:17.763Z,3.28
2022-08-05T09:43:40.249Z,8.07
2022-08-05T09:49:06.552Z,6.03
2022-08-05T09:54:11.556Z,9.40
2022-08-05T09:59:18.636Z,4.70
2022-08-05T10:04:41.088Z,12.23
2022-08-05T10:10:14.212Z,9.25
2022-08-05T10:15:25.647Z,7.50
2022-08-05T10:20:33.084Z,6.63
2022-08-05T10:25:37.190Z,11.23
2022-08-05T10:32:47.137Z,6.27
2022-08-05T10:36:07.187Z,6.00
2022-08-05T10:41:23.665Z,5.70
2022-08-05T10:46:44.375Z,9.20
2022-08-05T10:52:10.250Z,6.93
2022-08-05T10:57:29.693Z,10.18
2022-08-05T11:02:38.765Z,6.60
2022-08-05T11:08:17.087Z,4.25
2022-08-05T11:13:54.923Z,5.22
2022-08-05T11:20:10.613Z,6.60
2022-08-05T11:26:05.735Z,9.95
2022-08-05T11:31:58.023Z,10.27
2022-08-05T11:36:54.910Z,5.20
2022-08-05T11:42:04.554Z,7.82
2022-08-05T11:47:15.239Z,5.05
2022-08-05T11:52:29.036Z,5.78
2022-08-05T11:57:39.339Z,3.95
2022-08-05T12:02:58.770Z,7.07
2022-08-05T12:08:09.840Z,8.95
2022-08-05T12:13:18.818Z,8.53
2022-08-05T12:18:42.727Z,3.90
2022-08-05T12:23:54.954Z,7.85
2022-08-05T12:28:58.603Z,4.75
2022-08-05T12:34:05.018Z,6.95
2022-08-05T12:39:11.277Z,6.90
2022-08-05T12:44:28.494Z,6.30
2022-08-05T12:50:04.652Z,7.80
2022-08-05T12:55:22.363Z,4.53
2022-08-05T13:02:02.756Z,6.68
2022-08-05T13:05:55.200Z,4.45
2022-08-05T13:11:01.736Z,6.25
2022-08-05T13:16:15.364Z,5.75
2022-08-05T13:21:22.702Z,7.28
2022-08-05T13:26:32.325Z,5.93
2022-08-05T13:32:03.846Z,5.90
2022-08-05T13:37:02.346Z,4.80
2022-08-05T13:42:06.446Z,7.18
2022-08-05T13:47:10.495Z,3.20
2022-08-05T13:52:38.785Z,6.65
2022-08-05T13:57:50.775Z,3.38
2022-08-05T14:02:57.070Z,9.15
2022-08-05T14:08:20.269Z,9.10
2022-08-05T14:13:25.715Z,7.15
2022-08-05T14:18:30.264Z,8.95
2022-08-05T14:23:37.265Z,5.40
2022-08-05T14:28:52.298Z,6.53
2022-08-05T14:34:00.551Z,3.67
2022-08-05T14:39:06.896Z,5.05
2022-08-05T14:44:21.759Z,3.95
2022-08-05T14:49:25.749Z,7.38
2022-08-05T14:54:52.925Z,2.72
2022-08-05T14:59:57.174Z,4.22
2022-08-05T15:05:02.490Z,4.30
2022-08-05T15:10:18.467Z,8.43
2022-08-05T15:15:55.049Z,4.82
2022-08-05T15:20:56.492Z,3.58
2022-08-05T15:26:03.087Z,3.65
2022-08-05T15:31:07.096Z,3.85
2022-08-05T15:36:17.746Z,4.68
2022-08-05T15:41:55.838Z,6.93
2022-08-05T15:46:53.913Z,4.43
2022-08-05T15:52:13.239Z,4.40
2022-08-05T15:57:24.884Z,4.70
2022-08-05T16:02:31.871Z,3.22
2022-08-05T16:07:36.305Z,4.97
2022-08-05T16:12:41.645Z,5.60
2022-08-05T16:17:57.314Z,5.95
2022-08-05T16:23:02.033Z,5.78
2022-08-05T16:28:09.440Z,10.45
2022-08-05T16:33:14.274Z,12.82
2022-08-05T16:38:25.655Z,6.07
2022-08-05T16:43:34.880Z,9.27
2022-08-05T16:48:39.279Z,7.00
2022-08-05T16:59:10.295Z,12.70
2022-08-05T17:04:15.035Z,8.82
2022-08-05T17:09:19.168Z,10.80
2022-08-05T17:14:36.773Z,10.93
2022-08-05T17:19:45.603Z,7.03
2022-08-05T17:24:58.136Z,10.82
2022-08-05T17:30:12.146Z,13.25
2022-08-05T17:35:23.028Z,4.90
2022-08-05T17:40:26.857Z,7.67
2022-08-05T17:45:38.600Z,11.55
2022-08-05T17:50:43.154Z,14.45
2022-08-05T17:55:46.796Z,15.50
2022-08-05T18:00:51.908Z,13.05
2022-08-05T18:06:04.014Z,14.40
2022-08-05T18:11:08.362Z,16.08
2022-08-05T18:16:20.240Z,10.02
2022-08-05T18:21:26.148Z,9.85
2022-08-05T18:26:32.090Z,7.55
2022-08-05T18:31:38.002Z,10.48
2022-08-05T18:36:46.907Z,9.90
2022-08-05T18:42:01.232Z,9.82
2022-08-05T18:47:12.198Z,8.15
2022-08-05T18:52:35.949Z,14.80
2022-08-05T18:57:43.678Z,11.77
2022-08-05T19:03:04.006Z,11.50
2022-08-05T19:08:12.271Z,16.25
2022-08-05T19:13:20.447Z,10.70
2022-08-05T19:18:25.675Z,12.43
2022-08-05T19:24:06.525Z,12.45
2022-08-05T19:28:55.496Z,12.13
2022-08-05T19:34:02.268Z,7.88
2022-08-05T19:39:07.648Z,12.90
2022-08-05T19:44:13.408Z,9.98
2022-08-05T19:49:19.308Z,9.82
2022-08-05T19:54:29.487Z,14.13
2022-08-05T19:59:59.467Z,15.63
2022-08-05T20:05:01.105Z,11.73
2022-08-05T20:10:13.157Z,12.93
2022-08-05T20:15:23.374Z,21.33
2022-08-05T20:20:46.724Z,15.18
2022-08-05T20:25:52.316Z,11.52
2022-08-05T20:30:57.358Z,17.67
2022-08-05T20:36:03.051Z,15.20
2022-08-05T20:41:08.061Z,15.55
2022-08-05T20:46:18.248Z,17.42
2022-08-05T20:51:23.861Z,12.68
2022-08-05T20:56:29.829Z,12.45
2022-08-05T21:01:38.671Z,21.40
2022-08-05T21:06:45.514Z,18.52
2022-08-05T21:12:09.644Z,18.77
2022-08-05T21:17:13.769Z,16.33
2022-08-05T21:22:23.509Z,15.60
2022-08-05T21:27:28.095Z,17.23
2022-08-05T21:32:42.484Z,23.17
2022-08-05T21:37:53.282Z,16.02
2022-08-05T21:42:59.064Z,13.88
2022-08-05T21:48:09.973Z,15.23
2022-08-05T21:54:18.159Z,14.35
2022-08-05T22:00:14.411Z,17.75
2022-08-05T22:05:27.419Z,22.20
2022-08-05T22:10:46.496Z,13.55
2022-08-05T22:21:50.750Z,23.05
2022-08-05T22:27:16.672Z,14.18
2022-08-05T22:32:21.055Z,16.98
2022-08-05T22:37:58.051Z,16.27
2022-08-05T22:42:57.808Z,17.63
2022-08-05T22:48:01.954Z,18.33
2022-08-05T22:53:09.852Z,13.85
2022-08-05T22:58:15.009Z,15.20
2022-08-05T23:03:58.833Z,16.20
2022-08-05T23:08:55.651Z,17.83
2022-08-05T23:14:22.394Z,19.20
2022-08-05T23:19:26.427Z,21.65
2022-08-05T23:24:30.196Z,17.33
2022-08-05T23:29:35.202Z,16.05
2022-08-05T23:34:40.420Z,15.75
2022-08-05T23:39:53.680Z,14.32
2022-08-05T23:44:59.072Z,13.18
2022-08-05T23:55:13.200Z,22.73
